Time;durP1;ratioP1;P1;durP2;ratioP2;P2;SDS_P1;SDS_P2;PMS_P1;PMS_P2;Temp;Humidity;BMP_temperature;BMP_pressure;BME280_temperature;BME280_humidity;BME280_pressure;Samples;Min_cycle;Max_cycle;Signal;HPM_P1;HPM_P2
2022/01/03 00:01:34;;;;;;;0.50;0.40;;;10.40;99.90;;;;;;5077161;28;20214;-82
2022/01/03 00:04:01;;;;;;;0.50;0.50;;;10.40;99.90;;;;;;5083066;28;20197;-81
2022/01/03 00:06:27;;;;;;;22.15;1.27;;;10.40;99.90;;;;;;5081150;28;20576;-81
2022/01/03 00:08:54;;;;;;;0.50;0.38;;;10.30;99.90;;;;;;5084012;28;20224;-80
2022/01/03 00:11:22;;;;;;;1.33;1.23;;;10.30;99.90;;;;;;5082922;28;20659;-83
2022/01/03 00:13:52;;;;;;;0.50;0.40;;;10.20;99.90;;;;;;5083284;28;20433;-78
2022/01/03 00:16:19;;;;;;;0.90;0.90;;;10.20;99.90;;;;;;5084109;28;20941;-80
2022/01/03 00:18:46;;;;;;;0.50;0.40;;;10.20;99.90;;;;;;5086217;28;20439;-83
2022/01/03 00:21:15;;;;;;;0.50;0.40;;;10.30;99.90;;;;;;5084126;28;20608;-80
2022/01/03 00:23:49;;;;;;;0.68;0.68;;;10.30;99.90;;;;;;5081291;28;20190;-82
2022/01/03 00:26:24;;;;;;;2.70;1.90;;;10.30;99.90;;;;;;5079751;28;20224;-81
2022/01/03 00:28:58;;;;;;;4.10;0.93;;;10.20;99.90;;;;;;5082076;28;20189;-79
2022/01/03 00:31:33;;;;;;;2.17;2.08;;;10.20;99.90;;;;;;5081948;28;20265;-80
2022/01/03 00:34:00;;;;;;;1.55;0.73;;;10.10;99.90;;;;;;5084200;28;20239;-81
2022/01/03 00:36:29;;;;;;;0.50;0.40;;;10.10;99.90;;;;;;5078986;28;20653;-80
2022/01/03 00:38:56;;;;;;;0.95;0.93;;;10.10;99.90;;;;;;5074722;28;20220;-81
2022/01/03 00:41:23;;;;;;;0.50;0.40;;;10.10;99.90;;;;;;5076439;28;20213;-82
2022/01/03 00:43:54;;;;;;;0.50;0.40;;;10.10;99.90;;;;;;5075386;28;20563;-78
2022/01/03 00:46:22;;;;;;;0.50;0.40;;;10.10;99.90;;;;;;5074316;28;20217;-82
2022/01/03 00:48:49;;;;;;;0.50;0.40;;;10.10;99.90;;;;;;5077119;28;20201;-80
2022/01/03 00:51:19;;;;;;;1.40;0.65;;;10.00;99.90;;;;;;5076274;28;20194;-81
2022/01/03 00:53:47;;;;;;;0.60;0.52;;;9.90;99.90;;;;;;5076724;28;20194;-83
2022/01/03 00:56:16;;;;;;;0.70;0.50;;;9.80;99.90;;;;;;5076244;28;20221;-82
2022/01/03 00:58:51;;;;;;;0.50;0.47;;;9.70;99.90;;;;;;5074934;28;20205;-80
2022/01/03 01:01:20;;;;;;;0.50;0.40;;;9.60;99.90;;;;;;5075842;28;20661;-81
2022/01/03 01:03:52;;;;;;;0.50;0.40;;;9.60;99.90;;;;;;5077112;28;20212;-83
2022/01/03 01:06:21;;;;;;;0.50;0.40;;;9.60;99.90;;;;;;5078333;28;20221;-82
2022/01/03 01:08:54;;;;;;;0.50;0.40;;;9.60;99.90;;;;;;5075908;28;20193;-80
2022/01/03 01:11:25;;;;;;;0.50;0.40;;;9.60;99.90;;;;;;5075195;28;20180;-81
2022/01/03 01:13:53;;;;;;;7.60;1.42;;;9.60;99.90;;;;;;5074123;28;20194;-80
2022/01/03 01:16:22;;;;;;;0.50;0.40;;;9.60;99.90;;;;;;5074475;28;20225;-81
2022/01/03 01:18:50;;;;;;;4.65;0.60;;;9.50;99.90;;;;;;5074816;28;20905;-81
2022/01/03 01:21:18;;;;;;;8.70;0.85;;;9.50;99.90;;;;;;5074928;28;20190;-81
2022/01/03 01:23:45;;;;;;;0.50;0.40;;;9.60;99.90;;;;;;5075190;28;20197;-81
2022/01/03 01:28:57;;;;;;;1.77;0.50;;;9.60;99.90;;;;;;5074593;28;20232;-81
2022/01/03 01:31:25;;;;;;;2.65;0.90;;;9.70;99.90;;;;;;5074548;28;20197;-82
2022/01/03 01:33:56;;;;;;;0.50;0.40;;;9.70;99.90;;;;;;5074316;28;20197;-82
2022/01/03 01:36:27;;;;;;;1.20;1.10;;;9.60;99.90;;;;;;5075258;28;20474;-82
2022/01/03 01:38:59;;;;;;;0.50;0.40;;;9.60;99.90;;;;;;5074364;28;20185;-81
2022/01/03 01:41:28;;;;;;;1.60;1.27;;;9.60;99.90;;;;;;5074916;28;20193;-82
2022/01/03 01:43:58;;;;;;;0.50;0.40;;;9.60;99.90;;;;;;5075358;28;20204;-82
2022/01/03 01:46:28;;;;;;;0.77;0.77;;;9.60;99.90;;;;;;5074919;28;20218;-82
2022/01/03 01:48:55;;;;;;;0.52;0.45;;;9.60;99.90;;;;;;5074670;28;20201;-81
2022/01/03 01:51:24;;;;;;;2.05;1.88;;;9.60;99.90;;;;;;5076386;28;20197;-82
2022/01/03 01:53:53;;;;;;;0.50;0.40;;;9.60;99.90;;;;;;5078592;28;20208;-80
2022/01/03 01:56:23;;;;;;;1.15;0.95;;;9.60;99.90;;;;;;5078201;28;20275;-82
2022/01/03 01:59:09;;;;;;;0.50;0.40;;;9.60;99.90;;;;;;5078821;28;20674;-82
2022/01/03 02:01:44;;;;;;;1.05;0.70;;;9.60;99.90;;;;;;5078863;28;20594;-82
2022/01/03 02:04:32;;;;;;;0.95;0.50;;;9.70;99.90;;;;;;5078938;28;20197;-82
2022/01/03 02:07:21;;;;;;;5.30;1.50;;;9.70;99.90;;;;;;5079544;28;20591;-82
2022/01/03 02:09:57;;;;;;;0.60;0.60;;;9.70;99.90;;;;;;5089180;28;20197;-81
2022/01/03 02:12:28;;;;;;;1.15;1.05;;;9.70;99.90;;;;;;5087861;28;20658;-81
2022/01/03 02:14:57;;;;;;;1.65;0.52;;;9.60;99.90;;;;;;5081462;28;20591;-82
2022/01/03 02:17:25;;;;;;;3.47;1.55;;;9.60;99.90;;;;;;5079617;28;20311;-82
2022/01/03 02:20:05;;;;;;;1.10;0.70;;;9.50;99.90;;;;;;5078258;28;20204;-82
2022/01/03 02:22:32;;;;;;;5.47;3.35;;;9.60;99.90;;;;;;5078483;28;20657;-80
2022/01/03 02:24:59;;;;;;;21.08;1.35;;;9.60;99.90;;;;;;5078856;28;20201;-83
2022/01/03 02:27:26;;;;;;;14.20;1.02;;;9.60;99.90;;;;;;5078673;28;20217;-82
2022/01/03 02:29:54;;;;;;;1.40;0.55;;;9.60;99.90;;;;;;5077762;28;20211;-82
2022/01/03 02:32:20;;;;;;;0.80;0.80;;;9.70;99.90;;;;;;5078267;28;20200;-81
2022/01/03 02:34:47;;;;;;;0.60;0.40;;;9.60;99.90;;;;;;5078896;28;20198;-80
2022/01/03 02:40:01;;;;;;;1.42;1.33;;;9.60;99.90;;;;;;5071280;28;20205;-79
2022/01/03 02:42:28;;;;;;;0.50;0.50;;;9.50;99.90;;;;;;5084136;28;20210;-78
2022/01/03 02:45:03;;;;;;;1.48;1.38;;;9.50;99.90;;;;;;5066838;28;20198;-76
2022/01/03 02:47:30;;;;;;;1.10;0.60;;;9.50;99.90;;;;;;5078333;28;20216;-79
2022/01/03 02:49:56;;;;;;;0.50;0.40;;;9.50;99.90;;;;;;5105246;28;20197;-79
2022/01/03 02:52:23;;;;;;;11.40;2.15;;;9.40;99.90;;;;;;5104495;28;20189;-79
2022/01/03 02:54:51;;;;;;;0.50;0.40;;;9.40;99.90;;;;;;5099014;28;20200;-79
2022/01/03 02:57:23;;;;;;;7.13;1.52;;;9.40;99.90;;;;;;5097387;28;20208;-79
2022/01/03 02:59:53;;;;;;;9.00;2.15;;;9.40;99.90;;;;;;5096645;28;20181;-79
2022/01/03 03:02:22;;;;;;;0.60;0.60;;;9.40;99.90;;;;;;5095910;28;20196;-79
2022/01/03 03:04:53;;;;;;;0.50;0.50;;;9.40;99.90;;;;;;5097259;28;20190;-80
2022/01/03 03:07:21;;;;;;;0.50;0.40;;;9.30;99.90;;;;;;5097913;28;20220;-79
2022/01/03 03:09:48;;;;;;;3.75;3.45;;;9.20;99.90;;;;;;5102589;28;20224;-80
2022/01/03 03:12:16;;;;;;;0.50;0.50;;;9.30;99.90;;;;;;5107166;28;20190;-80
2022/01/03 03:14:44;;;;;;;0.70;0.50;;;9.30;99.90;;;;;;5103682;28;20189;-80
2022/01/03 03:17:11;;;;;;;0.50;0.40;;;9.20;99.90;;;;;;5105702;28;20283;-80
2022/01/03 03:19:55;;;;;;;0.50;0.40;;;9.20;99.90;;;;;;5107735;28;20219;-80
2022/01/03 03:22:23;;;;;;;1.15;1.15;;;9.20;99.90;;;;;;5105673;28;20311;-80
2022/01/03 03:24:50;;;;;;;1.67;0.73;;;9.10;99.90;;;;;;5106305;28;20211;-79
2022/01/03 03:27:18;;;;;;;0.50;0.40;;;9.10;99.90;;;;;;5108061;28;20207;-79
2022/01/03 03:29:51;;;;;;;3.70;1.20;;;9.20;99.90;;;;;;5104645;28;20243;-80
2022/01/03 03:32:18;;;;;;;0.80;0.60;;;9.20;99.90;;;;;;5105712;28;20193;-80
2022/01/03 03:34:46;;;;;;;6.53;1.67;;;9.20;99.90;;;;;;5104152;28;20295;-79
2022/01/03 03:37:14;;;;;;;0.98;0.80;;;9.20;99.90;;;;;;5098609;28;20189;-80
2022/01/03 03:39:41;;;;;;;0.60;0.60;;;9.30;99.90;;;;;;5115041;28;20231;-80
2022/01/03 03:42:09;;;;;;;0.95;0.40;;;9.30;99.90;;;;;;5117613;28;20204;-80
2022/01/03 03:44:37;;;;;;;0.50;0.45;;;9.20;99.90;;;;;;5117548;28;20239;-80
2022/01/03 03:47:06;;;;;;;0.50;0.35;;;9.30;99.90;;;;;;5116775;28;20197;-79
2022/01/03 03:49:34;;;;;;;1.35;0.70;;;9.30;99.90;;;;;;5116410;28;20294;-79
2022/01/03 03:52:02;;;;;;;0.50;0.40;;;9.30;99.90;;;;;;5117340;28;20695;-80
2022/01/03 03:54:29;;;;;;;0.90;0.70;;;9.30;99.90;;;;;;5117319;28;20673;-80
2022/01/03 03:56:56;;;;;;;1.52;1.08;;;9.30;99.90;;;;;;5116926;28;20200;-80
2022/01/03 03:59:23;;;;;;;0.60;0.55;;;9.40;99.90;;;;;;5117102;28;20212;-80
2022/01/03 04:01:50;;;;;;;6.93;0.90;;;9.50;99.90;;;;;;5116504;28;20204;-81
2022/01/03 04:04:18;;;;;;;4.20;2.92;;;9.50;99.90;;;;;;5117449;28;20282;-80
2022/01/03 04:06:45;;;;;;;2.35;0.98;;;9.50;99.90;;;;;;5117223;28;20211;-80
2022/01/03 04:09:12;;;;;;;0.68;0.65;;;9.60;99.90;;;;;;5116479;28;20222;-80
2022/01/03 04:11:38;;;;;;;1.60;0.73;;;9.50;99.90;;;;;;5118298;28;20200;-77
2022/01/03 04:14:05;;;;;;;0.50;0.40;;;9.60;99.90;;;;;;5118211;28;20215;-80
2022/01/03 04:16:32;;;;;;;0.50;0.40;;;9.60;99.90;;;;;;5118910;28;20200;-80
2022/01/03 04:19:00;;;;;;;16.02;1.58;;;9.50;99.90;;;;;;5121885;28;20238;-80
2022/01/03 04:21:28;;;;;;;0.50;0.38;;;9.50;99.90;;;;;;5122533;28;20192;-80
2022/01/03 04:23:55;;;;;;;0.70;0.50;;;9.50;99.90;;;;;;5120638;28;20217;-81
2022/01/03 04:26:22;;;;;;;4.82;1.67;;;9.50;99.90;;;;;;5121172;28;20613;-80
2022/01/03 04:28:49;;;;;;;0.50;0.40;;;9.50;99.90;;;;;;5121791;28;20599;-80
2022/01/03 04:31:16;;;;;;;1.50;0.80;;;9.50;99.90;;;;;;5116456;28;20200;-80
2022/01/03 04:33:43;;;;;;;0.60;0.60;;;9.50;99.90;;;;;;5116579;28;20202;-80
2022/01/03 04:36:10;;;;;;;0.50;0.40;;;9.40;99.90;;;;;;5117128;28;20193;-81
2022/01/03 04:38:38;;;;;;;1.35;0.95;;;9.40;99.90;;;;;;5115525;28;20236;-79
2022/01/03 04:41:05;;;;;;;0.60;0.60;;;9.30;99.90;;;;;;5117901;28;20204;-80
2022/01/03 04:43:33;;;;;;;0.50;0.50;;;9.40;99.90;;;;;;5117834;28;20226;-80
2022/01/03 04:46:00;;;;;;;0.80;0.80;;;9.40;99.90;;;;;;5116200;28;20196;-80
2022/01/03 04:48:27;;;;;;;2.45;0.50;;;9.50;99.90;;;;;;5115898;28;20224;-77
2022/01/03 04:50:54;;;;;;;0.50;0.40;;;9.50;99.90;;;;;;5116092;28;20192;-79
2022/01/03 04:53:25;;;;;;;1.30;0.75;;;9.50;99.90;;;;;;5114783;28;20193;-79
2022/01/03 04:55:53;;;;;;;1.15;0.98;;;9.50;99.90;;;;;;5115825;28;20614;-80
2022/01/03 04:58:20;;;;;;;0.60;0.60;;;9.60;99.90;;;;;;5116188;28;20224;-79
2022/01/03 05:00:48;;;;;;;0.50;0.40;;;9.50;99.90;;;;;;5115764;28;20630;-79
2022/01/03 05:03:16;;;;;;;0.60;0.50;;;9.40;99.90;;;;;;5115914;28;20304;-80
2022/01/03 05:05:43;;;;;;;8.82;1.65;;;9.40;99.90;;;;;;5115862;28;20657;-79
2022/01/03 05:08:10;;;;;;;2.67;0.93;;;9.40;99.90;;;;;;5115502;28;20212;-80
2022/01/03 05:10:37;;;;;;;5.65;2.35;;;9.30;99.90;;;;;;5115177;28;20687;-79
2022/01/03 05:13:05;;;;;;;0.50;0.40;;;9.30;99.90;;;;;;5114899;28;20202;-81
2022/01/03 05:15:32;;;;;;;1.50;0.65;;;9.30;99.90;;;;;;5115998;28;20196;-79
2022/01/03 05:17:58;;;;;;;0.50;0.40;;;9.30;99.90;;;;;;5115837;28;20597;-80
2022/01/03 05:20:25;;;;;;;0.50;0.40;;;9.30;99.90;;;;;;5115085;28;20568;-80
2022/01/03 05:22:52;;;;;;;0.50;0.50;;;9.30;99.90;;;;;;5115793;28;20219;-79
2022/01/03 05:25:19;;;;;;;0.70;0.60;;;9.40;99.90;;;;;;5114834;28;20199;-79
2022/01/03 05:27:45;;;;;;;1.05;0.80;;;9.40;99.90;;;;;;5115626;28;20223;-79
2022/01/03 05:30:13;;;;;;;2.20;2.10;;;9.50;99.90;;;;;;5115337;28;20192;-79
2022/01/03 05:32:40;;;;;;;20.00;4.30;;;9.50;99.90;;;;;;5115925;28;20198;-78
2022/01/03 05:35:08;;;;;;;1.00;0.60;;;9.50;99.90;;;;;;5114829;28;20626;-79
2022/01/03 05:37:35;;;;;;;3.53;1.80;;;9.60;99.90;;;;;;5115718;28;20199;-79
2022/01/03 05:40:01;;;;;;;0.50;0.40;;;9.60;99.90;;;;;;5116620;28;20205;-79
2022/01/03 05:42:28;;;;;;;5.38;4.00;;;9.50;99.90;;;;;;5115398;28;20193;-80
2022/01/03 05:44:55;;;;;;;17.60;0.98;;;9.50;99.90;;;;;;5115007;28;20219;-78
2022/01/03 05:47:23;;;;;;;1.95;1.35;;;9.50;99.90;;;;;;5114891;28;20264;-79
2022/01/03 05:49:52;;;;;;;6.35;1.58;;;9.60;99.90;;;;;;5115132;28;20222;-80
2022/01/03 05:52:19;;;;;;;0.50;0.50;;;9.60;99.90;;;;;;5114089;28;20192;-79
2022/01/03 05:54:46;;;;;;;0.75;0.60;;;9.60;99.90;;;;;;5106609;28;20193;-79
2022/01/03 05:57:12;;;;;;;2.88;1.75;;;9.60;99.90;;;;;;5114760;28;20193;-78
2022/01/03 05:59:39;;;;;;;83.57;3.13;;;9.50;99.90;;;;;;5112431;28;20223;-79
2022/01/03 06:02:06;;;;;;;0.50;0.40;;;9.50;99.90;;;;;;5112896;28;20203;-79
2022/01/03 06:04:52;;;;;;;0.50;0.40;;;9.50;99.90;;;;;;5112552;28;20226;-80
2022/01/03 06:07:19;;;;;;;0.50;0.40;;;9.60;99.90;;;;;;5113910;28;20264;-80
2022/01/03 06:09:46;;;;;;;0.80;0.50;;;9.50;99.90;;;;;;5115219;28;20220;-79
2022/01/03 06:12:13;;;;;;;0.80;0.60;;;9.50;99.90;;;;;;5099824;28;20190;-79
2022/01/03 06:14:40;;;;;;;6.47;0.90;;;9.40;99.90;;;;;;5094231;28;20189;-79
2022/01/03 06:17:07;;;;;;;0.60;0.60;;;9.40;99.90;;;;;;5094135;28;20201;-79
2022/01/03 06:19:36;;;;;;;5.57;1.77;;;9.40;99.90;;;;;;5092687;28;20218;-77
2022/01/03 06:22:04;;;;;;;0.85;0.60;;;9.50;99.90;;;;;;5097020;28;20193;-77
2022/01/03 06:24:31;;;;;;;1.25;0.55;;;9.50;99.90;;;;;;5112663;28;20341;-79
2022/01/03 06:26:58;;;;;;;2.88;1.20;;;9.50;99.90;;;;;;5105167;28;20192;-79
2022/01/03 06:29:25;;;;;;;1.00;0.90;;;9.50;99.90;;;;;;5109658;28;20209;-80
2022/01/03 06:31:51;;;;;;;4.75;0.60;;;9.60;99.90;;;;;;5114192;28;20197;-79
2022/01/03 06:34:19;;;;;;;2.05;0.60;;;9.60;99.90;;;;;;5114380;28;20272;-80
2022/01/03 06:36:47;;;;;;;0.70;0.50;;;9.60;99.90;;;;;;5114292;28;20197;-79
2022/01/03 06:39:14;;;;;;;27.40;2.47;;;9.70;99.90;;;;;;5117539;28;20578;-77
2022/01/03 06:41:41;;;;;;;2.92;1.95;;;9.70;99.90;;;;;;5118896;28;20200;-80
2022/01/03 06:44:08;;;;;;;2.72;1.35;;;9.70;99.90;;;;;;5118544;28;20224;-79
2022/01/03 06:46:35;;;;;;;0.70;0.70;;;9.80;99.90;;;;;;5106531;28;20189;-80
2022/01/03 06:49:03;;;;;;;1.17;0.80;;;9.80;99.90;;;;;;5097249;28;20225;-80
2022/01/03 06:51:34;;;;;;;4.75;2.45;;;9.80;99.90;;;;;;5098886;28;20197;-80
2022/01/03 06:54:05;;;;;;;0.50;0.50;;;9.80;99.90;;;;;;5098641;28;20600;-80
2022/01/03 06:56:31;;;;;;;0.50;0.40;;;9.80;99.90;;;;;;5098217;28;20184;-78
2022/01/03 06:58:58;;;;;;;0.50;0.40;;;9.80;99.90;;;;;;5097358;28;20232;-79
2022/01/03 07:01:25;;;;;;;2.97;0.80;;;9.80;99.90;;;;;;5098495;28;20193;-80
2022/01/03 07:03:52;;;;;;;8.77;1.80;;;9.90;99.90;;;;;;5096707;28;20219;-80
2022/01/03 07:06:18;;;;;;;1.80;0.65;;;9.80;99.90;;;;;;5097674;28;20208;-80
2022/01/03 07:08:45;;;;;;;19.90;3.22;;;9.80;99.90;;;;;;5096798;28;20586;-78
2022/01/03 07:11:13;;;;;;;4.70;4.22;;;9.80;99.90;;;;;;5096650;28;20555;-80
2022/01/03 07:13:45;;;;;;;3.38;1.92;;;9.80;99.90;;;;;;5137226;27;20196;-80
2022/01/03 07:19:00;;;;;;;3.22;1.05;;;9.80;99.90;;;;;;5138091;27;20268;-79
2022/01/03 07:21:27;;;;;;;3.95;0.77;;;9.80;99.90;;;;;;5137896;27;20211;-80
2022/01/03 07:23:55;;;;;;;0.50;0.45;;;9.90;99.90;;;;;;5137117;27;20227;-80
2022/01/03 07:26:24;;;;;;;0.60;0.50;;;9.90;99.90;;;;;;5137679;27;20199;-80
2022/01/03 07:28:51;;;;;;;1.45;1.35;;;9.80;99.90;;;;;;5136523;27;20216;-81
2022/01/03 07:31:18;;;;;;;1.30;1.08;;;9.80;99.90;;;;;;5135490;27;20192;-81
2022/01/03 07:33:46;;;;;;;0.50;0.40;;;9.80;99.90;;;;;;5136342;27;20653;-82
2022/01/03 07:36:13;;;;;;;3.55;2.25;;;9.90;99.90;;;;;;5136174;27;20263;-80
2022/01/03 07:38:40;;;;;;;0.75;0.73;;;9.90;99.90;;;;;;5136007;27;20219;-78
2022/01/03 07:41:08;;;;;;;2.05;0.95;;;9.90;99.90;;;;;;5135778;27;20242;-81
2022/01/03 07:43:36;;;;;;;10.18;2.95;;;10.00;99.90;;;;;;5135536;27;20204;-81
2022/01/03 07:46:03;;;;;;;3.20;0.88;;;10.00;99.90;;;;;;5135426;27;20188;-81
2022/01/03 07:48:30;;;;;;;1.25;1.15;;;10.00;99.90;;;;;;5135274;27;20215;-78
2022/01/03 07:50:57;;;;;;;8.85;3.15;;;10.00;99.90;;;;;;5135945;27;20202;-80
2022/01/03 07:53:24;;;;;;;0.80;0.43;;;10.00;99.90;;;;;;5136358;27;20203;-81
2022/01/03 07:55:51;;;;;;;4.20;1.05;;;10.10;99.90;;;;;;5136049;27;20195;-80
2022/01/03 07:58:18;;;;;;;0.68;0.65;;;10.10;99.90;;;;;;5137239;27;20671;-79
2022/01/03 08:00:46;;;;;;;3.97;1.38;;;10.10;99.90;;;;;;5134998;27;20290;-78
2022/01/03 08:03:13;;;;;;;3.95;1.23;;;10.00;99.90;;;;;;5135686;27;20549;-80
2022/01/03 08:05:40;;;;;;;0.70;0.70;;;9.90;99.90;;;;;;5135544;27;20216;-79
2022/01/03 08:08:09;;;;;;;4.28;1.60;;;9.70;99.90;;;;;;5136111;27;20226;-80
2022/01/03 08:10:36;;;;;;;1.20;1.10;;;9.60;99.90;;;;;;5127693;27;20184;-81
2022/01/03 08:13:03;;;;;;;1.30;0.73;;;9.40;99.90;;;;;;5121290;27;20192;-81
2022/01/03 08:15:30;;;;;;;0.50;0.50;;;9.30;99.90;;;;;;5114414;27;20191;-82
2022/01/03 08:17:58;;;;;;;1.15;1.15;;;9.30;99.90;;;;;;5117342;27;20215;-81
2022/01/03 08:20:25;;;;;;;2.25;2.08;;;9.30;99.90;;;;;;5115393;27;20193;-81
2022/01/03 08:22:52;;;;;;;0.80;0.80;;;9.30;99.90;;;;;;5116573;27;20194;-82
2022/01/03 08:25:19;;;;;;;0.90;0.60;;;9.30;99.90;;;;;;5129854;27;20260;-81
2022/01/03 08:27:46;;;;;;;6.45;3.97;;;9.30;99.90;;;;;;5135888;27;20577;-82
2022/01/03 08:30:13;;;;;;;1.02;0.80;;;9.30;99.90;;;;;;5135941;27;20195;-80
2022/01/03 08:32:40;;;;;;;1.20;1.10;;;9.40;99.90;;;;;;5135626;27;20205;-80
2022/01/03 08:35:09;;;;;;;0.50;0.40;;;9.40;99.90;;;;;;5136093;27;20572;-82
2022/01/03 08:37:36;;;;;;;0.50;0.40;;;9.40;99.90;;;;;;5135941;27;20203;-82
2022/01/03 08:40:06;;;;;;;2.25;0.95;;;9.50;99.90;;;;;;5135434;27;20192;-82
2022/01/03 08:45:04;;;;;;;5.28;1.88;;;9.60;99.90;;;;;;5040869;28;20214;-80
2022/01/03 08:47:31;;;;;;;0.50;0.40;;;9.60;99.90;;;;;;5053028;28;20216;-80
2022/01/03 08:49:57;;;;;;;3.42;2.00;;;9.60;99.90;;;;;;5054954;28;20221;-79
2022/01/03 08:52:26;;;;;;;0.50;0.50;;;9.70;99.90;;;;;;5055412;28;20209;-79
2022/01/03 08:54:52;;;;;;;1.25;1.15;;;9.70;99.90;;;;;;5075391;28;20235;-79
2022/01/03 08:57:21;;;;;;;0.93;0.93;;;9.80;99.90;;;;;;5075391;28;20194;-80
2022/01/03 08:59:48;;;;;;;0.90;0.90;;;9.80;99.90;;;;;;5075255;28;20193;-79
2022/01/03 09:02:16;;;;;;;1.13;0.50;;;9.80;99.90;;;;;;5075053;28;20208;-80
2022/01/03 09:04:42;;;;;;;5.03;2.20;;;9.80;99.90;;;;;;5075575;28;20246;-79
2022/01/03 09:07:09;;;;;;;2.17;0.73;;;9.80;99.90;;;;;;5074715;28;20200;-79
2022/01/03 09:09:37;;;;;;;0.75;0.75;;;9.80;99.90;;;;;;5074626;28;20202;-79
2022/01/03 09:12:06;;;;;;;0.52;0.45;;;9.80;99.90;;;;;;5075444;28;20201;-80
2022/01/03 09:14:33;;;;;;;0.50;0.40;;;9.80;99.90;;;;;;5074372;28;20635;-78
2022/01/03 09:17:01;;;;;;;0.50;0.40;;;9.90;99.90;;;;;;5074810;28;20194;-79
2022/01/03 09:19:28;;;;;;;0.50;0.40;;;9.90;99.90;;;;;;5073921;28;20202;-79
2022/01/03 09:22:03;;;;;;;5.18;1.67;;;10.00;99.90;;;;;;5076425;28;20189;-79
2022/01/03 09:24:42;;;;;;;6.93;1.10;;;10.00;99.90;;;;;;5077690;28;20213;-79
2022/01/03 09:29:58;;;;;;;2.22;2.03;;;10.10;99.90;;;;;;5073977;28;20235;-79
2022/01/03 09:32:24;;;;;;;9.25;2.55;;;10.20;99.90;;;;;;5074655;28;20209;-81
2022/01/03 09:34:51;;;;;;;0.60;0.50;;;10.20;99.90;;;;;;5074292;28;20213;-79
2022/01/03 09:37:20;;;;;;;1.98;0.70;;;10.20;99.90;;;;;;5073496;28;20205;-80
2022/01/03 09:39:48;;;;;;;0.50;0.40;;;10.30;99.90;;;;;;5073860;28;20667;-79
2022/01/03 09:42:20;;;;;;;6.28;2.58;;;10.30;99.90;;;;;;5073905;28;20452;-80
2022/01/03 09:44:50;;;;;;;0.95;0.85;;;10.40;99.90;;;;;;5074497;28;20225;-80
2022/01/03 09:47:19;;;;;;;4.13;0.68;;;10.50;99.90;;;;;;5073714;28;20675;-77
2022/01/03 09:49:47;;;;;;;5.47;2.67;;;10.50;99.90;;;;;;5073560;28;20194;-79
2022/01/03 09:52:16;;;;;;;0.50;0.40;;;10.50;99.90;;;;;;5073740;28;20201;-80
2022/01/03 09:54:44;;;;;;;3.25;1.08;;;10.60;99.90;;;;;;5074498;28;20214;-79
2022/01/03 09:57:12;;;;;;;1.08;0.95;;;10.50;99.90;;;;;;5074560;28;20670;-79
2022/01/03 09:59:40;;;;;;;0.50;0.40;;;10.50;99.90;;;;;;5073812;28;20205;-78
2022/01/03 10:02:09;;;;;;;10.13;1.10;;;10.50;99.90;;;;;;5073609;28;20205;-79
2022/01/03 10:04:36;;;;;;;8.07;1.60;;;10.50;99.90;;;;;;5073856;28;20229;-80
2022/01/03 10:07:03;;;;;;;2.33;1.23;;;10.50;99.90;;;;;;5074138;28;20194;-78
2022/01/03 10:09:31;;;;;;;1.23;0.60;;;10.40;99.90;;;;;;5075985;28;20441;-80
2022/01/03 10:11:58;;;;;;;2.30;2.03;;;10.40;99.90;;;;;;5074223;28;20201;-79
2022/01/03 10:14:25;;;;;;;6.13;1.73;;;10.50;99.90;;;;;;5078176;28;20452;-79
2022/01/03 10:16:53;;;;;;;0.93;0.80;;;10.50;99.90;;;;;;5078315;28;20201;-79
2022/01/03 10:19:19;;;;;;;1.00;0.60;;;10.40;99.90;;;;;;5077072;28;20199;-79
2022/01/03 10:21:50;;;;;;;1.33;1.20;;;10.50;99.90;;;;;;5078079;28;20205;-79
2022/01/03 10:24:19;;;;;;;1.17;1.08;;;10.50;99.90;;;;;;5071408;28;20587;-78
2022/01/03 10:26:54;;;;;;;0.60;0.57;;;10.60;99.90;;;;;;5075777;28;20190;-77
2022/01/03 10:29:22;;;;;;;4.20;0.80;;;10.70;99.90;;;;;;5075979;28;20204;-78
2022/01/03 10:31:51;;;;;;;3.45;1.98;;;10.80;99.90;;;;;;5071338;28;20194;-78
2022/01/03 10:34:21;;;;;;;11.40;1.63;;;10.70;99.90;;;;;;5057512;28;20214;-79
2022/01/03 10:36:50;;;;;;;1.57;1.47;;;10.80;99.90;;;;;;5071002;28;20471;-78
2022/01/03 10:39:19;;;;;;;0.60;0.50;;;11.00;99.90;;;;;;5065185;28;20476;-79
2022/01/03 10:41:47;;;;;;;4.82;2.45;;;11.30;99.90;;;;;;5065102;28;20814;-78
2022/01/03 10:44:31;;;;;;;0.50;0.40;;;11.20;99.90;;;;;;5076799;28;20234;-79
2022/01/03 10:46:58;;;;;;;0.50;0.40;;;11.00;99.90;;;;;;5070307;28;20213;-78
2022/01/03 10:49:27;;;;;;;8.13;2.33;;;11.20;99.90;;;;;;5058583;28;20201;-78
2022/01/03 10:52:15;;;;;;;0.80;0.60;;;11.60;99.90;;;;;;5062276;28;20437;-78
2022/01/03 10:54:43;;;;;;;1.67;1.00;;;11.80;99.90;;;;;;5069716;28;20452;-79
2022/01/03 10:57:10;;;;;;;3.13;0.87;;;11.80;99.90;;;;;;5077747;28;20463;-78
2022/01/03 10:59:38;;;;;;;0.57;0.50;;;11.50;99.90;;;;;;5062687;28;20441;-78
2022/01/03 11:02:13;;;;;;;2.25;1.20;;;11.40;99.90;;;;;;5057217;28;20854;-79
2022/01/03 11:04:49;;;;;;;8.43;1.25;;;11.20;99.90;;;;;;5055236;28;20678;-78
2022/01/03 11:13:10;;;;;;;0.60;0.60;;;11.10;99.90;;;;;;5056140;28;20969;-79
2022/01/03 11:15:39;;;;;;;15.80;1.63;;;11.00;99.90;;;;;;5055997;28;20414;-79
2022/01/03 11:18:11;;;;;;;0.80;0.80;;;11.00;99.90;;;;;;5054595;28;20198;-78
2022/01/03 11:20:39;;;;;;;0.50;0.40;;;11.00;99.90;;;;;;5054882;28;20481;-78
2022/01/03 11:23:06;;;;;;;0.73;0.60;;;11.10;99.90;;;;;;5054634;28;20457;-78
2022/01/03 11:25:35;;;;;;;0.83;0.70;;;11.10;99.90;;;;;;5054471;28;20484;-77
2022/01/03 11:28:03;;;;;;;0.50;0.40;;;11.10;99.90;;;;;;5053425;28;20441;-78
2022/01/03 11:30:30;;;;;;;1.33;1.33;;;11.10;99.90;;;;;;5057098;28;20213;-80
2022/01/03 11:32:57;;;;;;;0.50;0.40;;;11.10;99.90;;;;;;5065844;28;20206;-78
2022/01/03 11:35:24;;;;;;;3.55;1.23;;;11.20;99.90;;;;;;5073403;28;20214;-77
2022/01/03 11:37:54;;;;;;;0.60;0.50;;;11.20;99.90;;;;;;5073989;28;20285;-78
2022/01/03 11:40:22;;;;;;;2.58;0.80;;;11.20;99.90;;;;;;5073150;28;20464;-78
2022/01/03 11:42:49;;;;;;;1.13;0.65;;;11.20;99.90;;;;;;5073612;28;20201;-78
2022/01/03 11:45:16;;;;;;;1.43;1.13;;;11.20;99.90;;;;;;5074385;28;20198;-79
2022/01/03 11:47:43;;;;;;;4.60;1.30;;;11.20;99.90;;;;;;5074928;28;20440;-79
2022/01/03 11:50:11;;;;;;;1.30;1.20;;;11.10;99.90;;;;;;5075079;28;20471;-79
2022/01/03 11:52:41;;;;;;;2.73;2.30;;;11.20;99.90;;;;;;5075111;28;20440;-79
2022/01/03 11:55:11;;;;;;;4.10;0.60;;;11.30;99.90;;;;;;5075867;28;20470;-80
2022/01/03 12:03:54;;;;;;;0.50;0.40;;;11.20;99.90;;;;;;5074605;28;20244;-79
2022/01/03 12:06:28;;;;;;;1.67;0.80;;;11.20;99.90;;;;;;5074429;28;20267;-79
2022/01/03 12:08:57;;;;;;;1.07;0.97;;;11.20;99.90;;;;;;5074998;28;20189;-79
2022/01/03 12:11:27;;;;;;;0.60;0.55;;;11.30;99.90;;;;;;5073873;28;20439;-78
2022/01/03 12:13:55;;;;;;;0.50;0.40;;;11.40;99.90;;;;;;5073648;28;20214;-77
2022/01/03 12:16:48;;;;;;;2.70;0.50;;;11.40;99.90;;;;;;5073301;28;20194;-79
2022/01/03 12:19:28;;;;;;;1.27;1.17;;;11.40;99.90;;;;;;5068874;28;20501;-77
2022/01/03 12:22:11;;;;;;;0.83;0.83;;;11.30;99.90;;;;;;5072740;28;20432;-80
2022/01/03 12:24:57;;;;;;;2.45;0.93;;;11.20;99.90;;;;;;5073512;28;20468;-78
2022/01/03 12:27:43;;;;;;;8.63;1.80;;;11.20;99.90;;;;;;5074082;28;20189;-78
2022/01/03 12:30:27;;;;;;;2.10;1.10;;;11.20;99.90;;;;;;5073305;28;20430;-78
2022/01/03 12:33:24;;;;;;;0.50;0.40;;;11.10;99.90;;;;;;5053508;28;20544;-78
2022/01/03 12:36:15;;;;;;;10.32;1.10;;;11.00;99.90;;;;;;5058174;28;20439;-77
2022/01/03 12:39:03;;;;;;;0.68;0.68;;;11.00;99.90;;;;;;5071780;28;20555;-76
2022/01/03 12:41:47;;;;;;;0.50;0.40;;;11.00;99.90;;;;;;5073167;28;20190;-79
2022/01/03 12:44:44;;;;;;;0.60;0.50;;;11.00;99.90;;;;;;5073503;28;20221;-81
2022/01/03 12:47:20;;;;;;;29.30;3.47;;;11.00;99.90;;;;;;5074004;28;20190;-76
2022/01/03 12:49:47;;;;;;;4.97;2.10;;;10.90;99.90;;;;;;5072002;28;20352;-78
2022/01/03 12:52:15;;;;;;;5.70;1.95;;;10.90;99.90;;;;;;5071272;28;20194;-77
2022/01/03 12:54:43;;;;;;;0.50;0.40;;;10.70;99.90;;;;;;5071544;28;20217;-78
2022/01/03 12:57:17;;;;;;;0.50;0.40;;;10.50;99.90;;;;;;5071644;28;20240;-77
2022/01/03 12:59:46;;;;;;;6.60;1.03;;;10.40;99.90;;;;;;5071771;28;20952;-78
2022/01/03 13:02:28;;;;;;;11.88;0.80;;;10.30;99.90;;;;;;5071890;28;20448;-77
2022/01/03 13:04:55;;;;;;;0.60;0.40;;;10.20;99.90;;;;;;5071942;28;20217;-76
2022/01/03 13:07:23;;;;;;;0.50;0.40;;;10.10;99.90;;;;;;5072186;28;20202;-77
2022/01/03 13:09:50;;;;;;;1.02;0.50;;;10.00;99.90;;;;;;5069258;28;20450;-78
2022/01/03 13:12:17;;;;;;;0.73;0.73;;;10.00;99.90;;;;;;5056165;28;20194;-77
2022/01/03 13:14:44;;;;;;;6.93;2.05;;;10.00;99.90;;;;;;5069960;28;20218;-77
2022/01/03 13:17:12;;;;;;;0.50;0.40;;;10.10;99.90;;;;;;5071692;28;20193;-78
2022/01/03 13:19:40;;;;;;;2.45;2.35;;;10.10;99.90;;;;;;5071174;28;20198;-78
2022/01/03 13:22:09;;;;;;;8.45;1.05;;;10.10;99.90;;;;;;5071602;28;20190;-77
2022/01/03 13:24:38;;;;;;;0.65;0.65;;;10.10;99.90;;;;;;5070926;28;20219;-79
2022/01/03 13:27:10;;;;;;;1.35;1.25;;;10.10;99.90;;;;;;5071389;28;20224;-77
2022/01/03 13:29:46;;;;;;;0.60;0.55;;;10.00;99.90;;;;;;5072667;28;20189;-79